sensor_id;sensor_type;location;lat;lon;timestamp;temperature;humidity
12434;DHT22;6281;49.038;8.372;2023-09-08T00:00:14;19.20;99.90
12434;DHT22;6281;49.038;8.372;2023-09-08T00:02:42;19.10;99.90
12434;DHT22;6281;49.038;8.372;2023-09-08T00:05:09;19.00;99.90
12434;DHT22;6281;49.038;8.372;2023-09-08T00:07:36;19.10;99.90
12434;DHT22;6281;49.038;8.372;2023-09-08T00:10:04;19.00;99.90
12434;DHT22;6281;49.038;8.372;2023-09-08T00:12:31;19.10;99.90
12434;DHT22;6281;49.038;8.372;2023-09-08T00:14:57;19.10;99.90
12434;DHT22;6281;49.038;8.372;2023-09-08T00:17:24;19.10;99.90
12434;DHT22;6281;49.038;8.372;2023-09-08T00:19:52;19.10;99.90
12434;DHT22;6281;49.038;8.372;2023-09-08T00:22:19;19.00;99.90
12434;DHT22;6281;49.038;8.372;2023-09-08T00:24:46;19.00;99.90
12434;DHT22;6281;49.038;8.372;2023-09-08T00:27:13;19.00;99.90
12434;DHT22;6281;49.038;8.372;2023-09-08T00:29:39;18.80;99.90
12434;DHT22;6281;49.038;8.372;2023-09-08T00:32:06;18.70;99.90
12434;DHT22;6281;49.038;8.372;2023-09-08T00:34:33;18.70;99.90
12434;DHT22;6281;49.038;8.372;2023-09-08T00:37:01;18.70;99.90
12434;DHT22;6281;49.038;8.372;2023-09-08T00:39:34;18.80;99.90
12434;DHT22;6281;49.038;8.372;2023-09-08T00:42:01;18.70;99.90
12434;DHT22;6281;49.038;8.372;2023-09-08T00:44:27;18.70;99.90
12434;DHT22;6281;49.038;8.372;2023-09-08T00:46:54;18.80;99.90
12434;DHT22;6281;49.038;8.372;2023-09-08T00:49:21;18.70;99.90
12434;DHT22;6281;49.038;8.372;2023-09-08T00:51:49;18.70;99.90
12434;DHT22;6281;49.038;8.372;2023-09-08T00:54:18;18.60;99.90
12434;DHT22;6281;49.038;8.372;2023-09-08T00:56:44;18.50;99.90
12434;DHT22;6281;49.038;8.372;2023-09-08T00:59:13;18.40;99.90
12434;DHT22;6281;49.038;8.372;2023-09-08T01:01:39;18.40;99.90
12434;DHT22;6281;49.038;8.372;2023-09-08T01:04:06;18.40;99.90
12434;DHT22;6281;49.038;8.372;2023-09-08T01:06:33;18.30;99.90
12434;DHT22;6281;49.038;8.372;2023-09-08T01:09:00;18.40;99.90
12434;DHT22;6281;49.038;8.372;2023-09-08T01:11:29;18.30;99.90
12434;DHT22;6281;49.038;8.372;2023-09-08T01:13:56;18.30;99.90
12434;DHT22;6281;49.038;8.372;2023-09-08T01:16:23;18.30;99.90
12434;DHT22;6281;49.038;8.372;2023-09-08T01:18:51;18.20;99.90
12434;DHT22;6281;49.038;8.372;2023-09-08T01:27:31;17.80;99.90
12434;DHT22;6281;49.038;8.372;2023-09-08T01:29:59;18.00;99.90
12434;DHT22;6281;49.038;8.372;2023-09-08T01:32:26;18.00;99.90
12434;DHT22;6281;49.038;8.372;2023-09-08T01:34:56;17.90;99.90
12434;DHT22;6281;49.038;8.372;2023-09-08T01:37:23;17.90;99.90
12434;DHT22;6281;49.038;8.372;2023-09-08T01:39:50;17.90;99.90
12434;DHT22;6281;49.038;8.372;2023-09-08T01:42:16;18.00;99.90
12434;DHT22;6281;49.038;8.372;2023-09-08T01:44:45;17.90;99.90
12434;DHT22;6281;49.038;8.372;2023-09-08T01:47:11;17.60;99.90
12434;DHT22;6281;49.038;8.372;2023-09-08T01:49:38;17.60;99.90
12434;DHT22;6281;49.038;8.372;2023-09-08T01:52:05;17.60;99.90
12434;DHT22;6281;49.038;8.372;2023-09-08T01:54:32;17.50;99.90
12434;DHT22;6281;49.038;8.372;2023-09-08T01:56:59;17.60;99.90
12434;DHT22;6281;49.038;8.372;2023-09-08T01:59:25;17.60;99.90
12434;DHT22;6281;49.038;8.372;2023-09-08T02:01:54;17.60;99.90
12434;DHT22;6281;49.038;8.372;2023-09-08T02:04:21;17.50;99.90
12434;DHT22;6281;49.038;8.372;2023-09-08T02:06:47;17.50;99.90
12434;DHT22;6281;49.038;8.372;2023-09-08T02:09:14;17.50;99.90
12434;DHT22;6281;49.038;8.372;2023-09-08T02:11:41;17.50;99.90
12434;DHT22;6281;49.038;8.372;2023-09-08T02:14:08;17.50;99.90
12434;DHT22;6281;49.038;8.372;2023-09-08T02:16:35;17.60;99.90
12434;DHT22;6281;49.038;8.372;2023-09-08T02:19:04;17.60;99.90
12434;DHT22;6281;49.038;8.372;2023-09-08T02:21:31;17.40;99.90
12434;DHT22;6281;49.038;8.372;2023-09-08T02:23:57;17.50;99.90
12434;DHT22;6281;49.038;8.372;2023-09-08T02:26:24;17.50;99.90
12434;DHT22;6281;49.038;8.372;2023-09-08T02:28:53;17.50;99.90
12434;DHT22;6281;49.038;8.372;2023-09-08T02:31:19;17.50;99.90
12434;DHT22;6281;49.038;8.372;2023-09-08T02:33:46;17.50;99.90
12434;DHT22;6281;49.038;8.372;2023-09-08T02:36:15;17.50;99.90
12434;DHT22;6281;49.038;8.372;2023-09-08T02:38:42;17.40;99.90
12434;DHT22;6281;49.038;8.372;2023-09-08T02:41:09;17.30;99.90
12434;DHT22;6281;49.038;8.372;2023-09-08T02:43:36;17.50;99.90
12434;DHT22;6281;49.038;8.372;2023-09-08T02:46:02;17.40;99.90
12434;DHT22;6281;49.038;8.372;2023-09-08T02:48:29;17.30;99.90
12434;DHT22;6281;49.038;8.372;2023-09-08T02:50:56;17.30;99.90
12434;DHT22;6281;49.038;8.372;2023-09-08T02:53:25;17.30;99.90
12434;DHT22;6281;49.038;8.372;2023-09-08T02:55:54;17.30;99.90
12434;DHT22;6281;49.038;8.372;2023-09-08T02:58:21;17.30;99.90
12434;DHT22;6281;49.038;8.372;2023-09-08T03:00:48;17.20;99.90
12434;DHT22;6281;49.038;8.372;2023-09-08T03:03:15;17.30;99.90
12434;DHT22;6281;49.038;8.372;2023-09-08T03:05:42;17.20;99.90
12434;DHT22;6281;49.038;8.372;2023-09-08T03:08:09;17.20;99.90
12434;DHT22;6281;49.038;8.372;2023-09-08T03:10:37;16.90;99.90
12434;DHT22;6281;49.038;8.372;2023-09-08T03:13:04;17.00;99.90
12434;DHT22;6281;49.038;8.372;2023-09-08T03:15:32;16.90;99.90
12434;DHT22;6281;49.038;8.372;2023-09-08T03:18:00;16.80;99.90
12434;DHT22;6281;49.038;8.372;2023-09-08T03:20:48;16.80;99.90
12434;DHT22;6281;49.038;8.372;2023-09-08T03:23:15;16.70;99.90
12434;DHT22;6281;49.038;8.372;2023-09-08T03:25:43;16.80;99.90
12434;DHT22;6281;49.038;8.372;2023-09-08T03:28:09;16.80;99.90
12434;DHT22;6281;49.038;8.372;2023-09-08T03:30:37;16.80;99.90
12434;DHT22;6281;49.038;8.372;2023-09-08T03:33:04;16.70;99.90
12434;DHT22;6281;49.038;8.372;2023-09-08T03:35:31;16.70;99.90
12434;DHT22;6281;49.038;8.372;2023-09-08T03:37:58;16.60;99.90
12434;DHT22;6281;49.038;8.372;2023-09-08T03:40:25;16.70;99.90
12434;DHT22;6281;49.038;8.372;2023-09-08T03:42:53;16.60;99.90
12434;DHT22;6281;49.038;8.372;2023-09-08T03:45:20;16.70;99.90
12434;DHT22;6281;49.038;8.372;2023-09-08T03:47:46;16.70;99.90
12434;DHT22;6281;49.038;8.372;2023-09-08T03:50:13;16.70;99.90
12434;DHT22;6281;49.038;8.372;2023-09-08T03:52:40;16.60;99.90
12434;DHT22;6281;49.038;8.372;2023-09-08T03:55:07;16.60;99.90
12434;DHT22;6281;49.038;8.372;2023-09-08T03:57:34;16.60;99.90
12434;DHT22;6281;49.038;8.372;2023-09-08T04:00:03;16.60;99.90
12434;DHT22;6281;49.038;8.372;2023-09-08T04:02:32;16.70;99.90
12434;DHT22;6281;49.038;8.372;2023-09-08T04:04:59;16.60;99.90
12434;DHT22;6281;49.038;8.372;2023-09-08T04:07:26;16.60;99.90
12434;DHT22;6281;49.038;8.372;2023-09-08T04:09:52;16.70;99.90
12434;DHT22;6281;49.038;8.372;2023-09-08T04:12:19;16.60;99.90
12434;DHT22;6281;49.038;8.372;2023-09-08T04:14:46;16.50;99.90
12434;DHT22;6281;49.038;8.372;2023-09-08T04:17:16;16.50;99.90
12434;DHT22;6281;49.038;8.372;2023-09-08T04:19:43;16.50;99.90
12434;DHT22;6281;49.038;8.372;2023-09-08T04:22:10;16.50;99.90
12434;DHT22;6281;49.038;8.372;2023-09-08T04:24:37;16.60;99.90
12434;DHT22;6281;49.038;8.372;2023-09-08T04:27:04;16.60;99.90
12434;DHT22;6281;49.038;8.372;2023-09-08T04:29:32;16.60;99.90
12434;DHT22;6281;49.038;8.372;2023-09-08T04:31:59;16.50;99.90
12434;DHT22;6281;49.038;8.372;2023-09-08T04:34:27;16.40;99.90
12434;DHT22;6281;49.038;8.372;2023-09-08T04:36:54;16.30;99.90
12434;DHT22;6281;49.038;8.372;2023-09-08T04:39:21;16.30;99.90
12434;DHT22;6281;49.038;8.372;2023-09-08T04:41:48;16.40;99.90
12434;DHT22;6281;49.038;8.372;2023-09-08T04:44:15;16.40;99.90
12434;DHT22;6281;49.038;8.372;2023-09-08T04:46:42;16.30;99.90
12434;DHT22;6281;49.038;8.372;2023-09-08T04:49:08;16.30;99.90
12434;DHT22;6281;49.038;8.372;2023-09-08T04:51:37;16.30;99.90
12434;DHT22;6281;49.038;8.372;2023-09-08T04:54:04;16.20;99.90
12434;DHT22;6281;49.038;8.372;2023-09-08T04:56:30;16.30;99.90
12434;DHT22;6281;49.038;8.372;2023-09-08T04:58:57;16.30;99.90
12434;DHT22;6281;49.038;8.372;2023-09-08T05:01:26;16.20;99.90
12434;DHT22;6281;49.038;8.372;2023-09-08T05:03:54;16.10;99.90
12434;DHT22;6281;49.038;8.372;2023-09-08T05:06:21;16.10;99.90
12434;DHT22;6281;49.038;8.372;2023-09-08T05:08:49;16.20;99.90
12434;DHT22;6281;49.038;8.372;2023-09-08T05:11:16;16.20;99.90
12434;DHT22;6281;49.038;8.372;2023-09-08T05:13:44;16.20;99.90
12434;DHT22;6281;49.038;8.372;2023-09-08T05:16:11;16.10;99.90
12434;DHT22;6281;49.038;8.372;2023-09-08T05:18:38;16.20;99.90
12434;DHT22;6281;49.038;8.372;2023-09-08T05:21:05;16.20;99.90
12434;DHT22;6281;49.038;8.372;2023-09-08T05:23:32;16.20;99.90
12434;DHT22;6281;49.038;8.372;2023-09-08T05:26:00;16.20;99.90
12434;DHT22;6281;49.038;8.372;2023-09-08T05:28:27;16.20;99.90
12434;DHT22;6281;49.038;8.372;2023-09-08T05:30:54;16.20;99.90
12434;DHT22;6281;49.038;8.372;2023-09-08T05:33:21;16.20;99.90
12434;DHT22;6281;49.038;8.372;2023-09-08T05:35:47;16.40;99.90
12434;DHT22;6281;49.038;8.372;2023-09-08T05:38:14;16.50;99.90
12434;DHT22;6281;49.038;8.372;2023-09-08T05:40:41;16.60;99.90
12434;DHT22;6281;49.038;8.372;2023-09-08T05:43:10;16.70;99.90
12434;DHT22;6281;49.038;8.372;2023-09-08T05:45:36;16.70;99.90
12434;DHT22;6281;49.038;8.372;2023-09-08T05:48:04;16.80;99.90
12434;DHT22;6281;49.038;8.372;2023-09-08T05:50:31;16.80;99.90
12434;DHT22;6281;49.038;8.372;2023-09-08T05:52:57;16.80;99.90
12434;DHT22;6281;49.038;8.372;2023-09-08T05:55:24;16.90;99.90
12434;DHT22;6281;49.038;8.372;2023-09-08T05:57:51;16.90;99.90
12434;DHT22;6281;49.038;8.372;2023-09-08T06:00:19;16.90;99.90
12434;DHT22;6281;49.038;8.372;2023-09-08T06:02:47;16.90;99.90
12434;DHT22;6281;49.038;8.372;2023-09-08T06:05:14;16.90;99.90
12434;DHT22;6281;49.038;8.372;2023-09-08T06:07:41;17.00;99.90
12434;DHT22;6281;49.038;8.372;2023-09-08T06:10:08;17.00;99.90
12434;DHT22;6281;49.038;8.372;2023-09-08T06:12:35;17.10;99.90
12434;DHT22;6281;49.038;8.372;2023-09-08T06:15:02;17.20;99.90
12434;DHT22;6281;49.038;8.372;2023-09-08T06:17:31;17.20;99.90
12434;DHT22;6281;49.038;8.372;2023-09-08T06:19:57;17.20;99.90
12434;DHT22;6281;49.038;8.372;2023-09-08T06:22:24;17.20;99.90
12434;DHT22;6281;49.038;8.372;2023-09-08T06:24:51;17.30;99.90
12434;DHT22;6281;49.038;8.372;2023-09-08T06:27:18;17.30;99.90
12434;DHT22;6281;49.038;8.372;2023-09-08T06:29:45;17.50;99.90
12434;DHT22;6281;49.038;8.372;2023-09-08T06:32:11;17.60;99.90
12434;DHT22;6281;49.038;8.372;2023-09-08T06:34:39;17.70;99.90
12434;DHT22;6281;49.038;8.372;2023-09-08T06:37:06;17.80;99.90
12434;DHT22;6281;49.038;8.372;2023-09-08T06:39:34;17.90;99.90
12434;DHT22;6281;49.038;8.372;2023-09-08T06:42:00;17.80;99.90
12434;DHT22;6281;49.038;8.372;2023-09-08T06:44:27;17.90;99.90
12434;DHT22;6281;49.038;8.372;2023-09-08T06:46:54;17.90;99.90
12434;DHT22;6281;49.038;8.372;2023-09-08T06:49:21;18.00;99.90
12434;DHT22;6281;49.038;8.372;2023-09-08T06:51:49;18.20;99.90
12434;DHT22;6281;49.038;8.372;2023-09-08T06:54:16;18.20;99.90
12434;DHT22;6281;49.038;8.372;2023-09-08T06:56:43;18.20;99.90
12434;DHT22;6281;49.038;8.372;2023-09-08T06:59:09;18.40;99.90
12434;DHT22;6281;49.038;8.372;2023-09-08T07:01:36;18.30;99.90
12434;DHT22;6281;49.038;8.372;2023-09-08T07:04:03;18.40;99.90
12434;DHT22;6281;49.038;8.372;2023-09-08T07:06:30;18.30;99.90
12434;DHT22;6281;49.038;8.372;2023-09-08T07:08:58;18.50;99.90
12434;DHT22;6281;49.038;8.372;2023-09-08T07:11:25;18.60;99.90
12434;DHT22;6281;49.038;8.372;2023-09-08T07:13:52;18.70;99.90
12434;DHT22;6281;49.038;8.372;2023-09-08T07:16:18;18.80;99.90
12434;DHT22;6281;49.038;8.372;2023-09-08T07:18:45;18.70;99.90
12434;DHT22;6281;49.038;8.372;2023-09-08T07:21:12;19.00;99.90
12434;DHT22;6281;49.038;8.372;2023-09-08T07:23:39;19.20;99.90
12434;DHT22;6281;49.038;8.372;2023-09-08T07:26:07;19.30;99.90
12434;DHT22;6281;49.038;8.372;2023-09-08T07:28:34;19.30;99.90
12434;DHT22;6281;49.038;8.372;2023-09-08T07:31:01;19.40;99.90
12434;DHT22;6281;49.038;8.372;2023-09-08T07:33:29;19.60;99.90
12434;DHT22;6281;49.038;8.372;2023-09-08T07:35:56;19.70;99.90
12434;DHT22;6281;49.038;8.372;2023-09-08T07:38:22;19.70;99.90
12434;DHT22;6281;49.038;8.372;2023-09-08T07:40:49;19.90;99.90
12434;DHT22;6281;49.038;8.372;2023-09-08T07:43:18;20.10;99.90
12434;DHT22;6281;49.038;8.372;2023-09-08T07:45:45;20.20;99.90
12434;DHT22;6281;49.038;8.372;2023-09-08T07:48:12;20.10;99.90
12434;DHT22;6281;49.038;8.372;2023-09-08T07:50:39;20.30;99.90
12434;DHT22;6281;49.038;8.372;2023-09-08T07:53:06;20.40;99.90
12434;DHT22;6281;49.038;8.372;2023-09-08T07:55:32;20.40;99.90
12434;DHT22;6281;49.038;8.372;2023-09-08T07:58:01;20.50;99.90
12434;DHT22;6281;49.038;8.372;2023-09-08T08:00:30;20.40;99.90
12434;DHT22;6281;49.038;8.372;2023-09-08T08:02:58;20.60;99.90
12434;DHT22;6281;49.038;8.372;2023-09-08T08:05:25;20.80;99.90
12434;DHT22;6281;49.038;8.372;2023-09-08T08:07:52;20.90;99.90
12434;DHT22;6281;49.038;8.372;2023-09-08T08:10:19;21.00;99.90
12434;DHT22;6281;49.038;8.372;2023-09-08T08:12:46;21.00;99.90
12434;DHT22;6281;49.038;8.372;2023-09-08T08:15:13;21.00;99.90
12434;DHT22;6281;49.038;8.372;2023-09-08T08:17:42;21.10;99.90
12434;DHT22;6281;49.038;8.372;2023-09-08T08:20:11;21.30;99.90
12434;DHT22;6281;49.038;8.372;2023-09-08T08:22:43;21.60;99.90
12434;DHT22;6281;49.038;8.372;2023-09-08T08:25:10;21.60;99.90
12434;DHT22;6281;49.038;8.372;2023-09-08T08:27:38;21.70;99.90
12434;DHT22;6281;49.038;8.372;2023-09-08T08:30:06;21.70;99.90
12434;DHT22;6281;49.038;8.372;2023-09-08T08:32:33;22.00;99.90
12434;DHT22;6281;49.038;8.372;2023-09-08T08:35:02;22.30;99.90
12434;DHT22;6281;49.038;8.372;2023-09-08T08:37:30;22.50;99.90
12434;DHT22;6281;49.038;8.372;2023-09-08T08:39:57;22.60;99.90
12434;DHT22;6281;49.038;8.372;2023-09-08T08:42:31;22.60;99.90
12434;DHT22;6281;49.038;8.372;2023-09-08T08:44:58;22.70;99.90
12434;DHT22;6281;49.038;8.372;2023-09-08T08:47:26;23.00;99.90
12434;DHT22;6281;49.038;8.372;2023-09-08T08:49:55;23.00;99.90
12434;DHT22;6281;49.038;8.372;2023-09-08T08:52:25;22.70;99.90
12434;DHT22;6281;49.038;8.372;2023-09-08T08:54:53;22.70;99.90
12434;DHT22;6281;49.038;8.372;2023-09-08T08:57:21;23.10;99.90
12434;DHT22;6281;49.038;8.372;2023-09-08T08:59:49;23.50;99.90
12434;DHT22;6281;49.038;8.372;2023-09-08T09:02:18;23.60;99.90
12434;DHT22;6281;49.038;8.372;2023-09-08T09:04:45;23.80;99.90
12434;DHT22;6281;49.038;8.372;2023-09-08T09:07:13;24.00;99.90
12434;DHT22;6281;49.038;8.372;2023-09-08T09:09:42;24.20;99.90
12434;DHT22;6281;49.038;8.372;2023-09-08T09:12:09;24.70;99.90
12434;DHT22;6281;49.038;8.372;2023-09-08T09:14:36;25.00;99.90
12434;DHT22;6281;49.038;8.372;2023-09-08T09:17:03;25.30;99.90
12434;DHT22;6281;49.038;8.372;2023-09-08T09:19:30;25.80;99.90
12434;DHT22;6281;49.038;8.372;2023-09-08T09:21:59;26.10;99.90
12434;DHT22;6281;49.038;8.372;2023-09-08T09:24:31;28.00;99.90
12434;DHT22;6281;49.038;8.372;2023-09-08T09:27:00;27.30;99.90
12434;DHT22;6281;49.038;8.372;2023-09-08T09:29:28;26.30;99.90
12434;DHT22;6281;49.038;8.372;2023-09-08T09:31:57;27.40;99.90
12434;DHT22;6281;49.038;8.372;2023-09-08T09:34:25;29.40;99.90
12434;DHT22;6281;49.038;8.372;2023-09-08T09:36:52;29.70;99.90
12434;DHT22;6281;49.038;8.372;2023-09-08T09:39:20;29.70;99.90
12434;DHT22;6281;49.038;8.372;2023-09-08T09:41:48;31.30;99.90
12434;DHT22;6281;49.038;8.372;2023-09-08T09:44:16;32.80;99.90
12434;DHT22;6281;49.038;8.372;2023-09-08T09:46:43;32.80;99.90
12434;DHT22;6281;49.038;8.372;2023-09-08T09:49:11;32.60;99.90
12434;DHT22;6281;49.038;8.372;2023-09-08T09:51:40;33.30;99.90
12434;DHT22;6281;49.038;8.372;2023-09-08T09:54:08;33.20;99.90
12434;DHT22;6281;49.038;8.372;2023-09-08T09:56:37;32.50;99.90
12434;DHT22;6281;49.038;8.372;2023-09-08T09:59:06;31.20;99.90
12434;DHT22;6281;49.038;8.372;2023-09-08T10:01:35;30.90;99.90
12434;DHT22;6281;49.038;8.372;2023-09-08T10:04:03;33.00;99.90
12434;DHT22;6281;49.038;8.372;2023-09-08T10:06:31;32.10;99.90
12434;DHT22;6281;49.038;8.372;2023-09-08T10:08:59;33.60;99.90
12434;DHT22;6281;49.038;8.372;2023-09-08T10:11:34;32.10;99.90
12434;DHT22;6281;49.038;8.372;2023-09-08T10:14:01;31.80;99.90
12434;DHT22;6281;49.038;8.372;2023-09-08T10:16:32;32.30;99.90
12434;DHT22;6281;49.038;8.372;2023-09-08T10:19:07;32.40;99.90
12434;DHT22;6281;49.038;8.372;2023-09-08T10:21:39;33.70;96.30
12434;DHT22;6281;49.038;8.372;2023-09-08T10:24:12;34.30;96.30
12434;DHT22;6281;49.038;8.372;2023-09-08T10:26:43;35.10;89.60
12434;DHT22;6281;49.038;8.372;2023-09-08T10:29:11;36.00;80.10
12434;DHT22;6281;49.038;8.372;2023-09-08T10:31:39;35.90;76.90
12434;DHT22;6281;49.038;8.372;2023-09-08T10:34:08;35.60;76.60
12434;DHT22;6281;49.038;8.372;2023-09-08T10:36:35;35.50;80.50
12434;DHT22;6281;49.038;8.372;2023-09-08T10:39:27;33.50;83.90
12434;DHT22;6281;49.038;8.372;2023-09-08T10:42:23;34.20;87.00
12434;DHT22;6281;49.038;8.372;2023-09-08T10:45:02;36.20;75.10
12434;DHT22;6281;49.038;8.372;2023-09-08T10:47:33;36.70;65.20
12434;DHT22;6281;49.038;8.372;2023-09-08T10:50:03;37.20;64.10
12434;DHT22;6281;49.038;8.372;2023-09-08T10:52:30;37.20;57.20
12434;DHT22;6281;49.038;8.372;2023-09-08T10:55:00;37.80;57.00
12434;DHT22;6281;49.038;8.372;2023-09-08T10:57:28;36.80;55.00
12434;DHT22;6281;49.038;8.372;2023-09-08T10:59:57;34.90;60.10
12434;DHT22;6281;49.038;8.372;2023-09-08T11:02:35;33.70;74.30
12434;DHT22;6281;49.038;8.372;2023-09-08T11:05:07;36.10;59.00
12434;DHT22;6281;49.038;8.372;2023-09-08T11:07:35;35.60;58.00
12434;DHT22;6281;49.038;8.372;2023-09-08T11:10:02;35.60;62.00
12434;DHT22;6281;49.038;8.372;2023-09-08T11:12:30;35.40;61.40
12434;DHT22;6281;49.038;8.372;2023-09-08T11:14:57;36.90;58.40
12434;DHT22;6281;49.038;8.372;2023-09-08T11:17:26;37.70;52.70
12434;DHT22;6281;49.038;8.372;2023-09-08T11:19:54;38.20;51.90
12434;DHT22;6281;49.038;8.372;2023-09-08T11:22:24;38.00;50.70
12434;DHT22;6281;49.038;8.372;2023-09-08T11:24:51;38.90;49.70
12434;DHT22;6281;49.038;8.372;2023-09-08T11:27:18;37.90;48.70
12434;DHT22;6281;49.038;8.372;2023-09-08T11:29:45;39.30;49.50
12434;DHT22;6281;49.038;8.372;2023-09-08T11:32:12;39.00;49.30
12434;DHT22;6281;49.038;8.372;2023-09-08T11:34:39;36.00;49.50
12434;DHT22;6281;49.038;8.372;2023-09-08T11:37:08;36.20;53.30
12434;DHT22;6281;49.038;8.372;2023-09-08T11:39:37;38.00;49.50
12434;DHT22;6281;49.038;8.372;2023-09-08T11:42:05;36.20;52.10
12434;DHT22;6281;49.038;8.372;2023-09-08T11:44:32;36.70;54.50
12434;DHT22;6281;49.038;8.372;2023-09-08T11:47:00;36.70;54.50
12434;DHT22;6281;49.038;8.372;2023-09-08T11:49:33;37.00;52.60
12434;DHT22;6281;49.038;8.372;2023-09-08T11:52:00;36.60;56.30
12434;DHT22;6281;49.038;8.372;2023-09-08T11:54:28;36.30;53.10
12434;DHT22;6281;49.038;8.372;2023-09-08T11:56:58;35.70;58.00
12434;DHT22;6281;49.038;8.372;2023-09-08T11:59:26;34.10;63.20
12434;DHT22;6281;49.038;8.372;2023-09-08T12:01:53;36.20;64.50
12434;DHT22;6281;49.038;8.372;2023-09-08T12:04:20;36.00;55.80
12434;DHT22;6281;49.038;8.372;2023-09-08T12:06:48;35.50;56.00
12434;DHT22;6281;49.038;8.372;2023-09-08T12:09:15;36.50;56.10
12434;DHT22;6281;49.038;8.372;2023-09-08T12:11:43;36.50;55.10
12434;DHT22;6281;49.038;8.372;2023-09-08T12:14:12;36.10;54.90
12434;DHT22;6281;49.038;8.372;2023-09-08T12:16:39;37.20;54.40
12434;DHT22;6281;49.038;8.372;2023-09-08T12:19:07;35.80;55.60
12434;DHT22;6281;49.038;8.372;2023-09-08T12:24:18;35.30;58.60
12434;DHT22;6281;49.038;8.372;2023-09-08T12:26:45;36.10;61.20
12434;DHT22;6281;49.038;8.372;2023-09-08T12:29:14;36.20;61.70
12434;DHT22;6281;49.038;8.372;2023-09-08T12:31:40;36.20;64.20
12434;DHT22;6281;49.038;8.372;2023-09-08T12:34:07;36.30;58.90
12434;DHT22;6281;49.038;8.372;2023-09-08T12:36:36;35.10;61.40
12434;DHT22;6281;49.038;8.372;2023-09-08T12:39:04;34.40;94.40
12434;DHT22;6281;49.038;8.372;2023-09-08T12:41:31;35.10;90.00
12434;DHT22;6281;49.038;8.372;2023-09-08T12:43:58;35.40;76.00
12434;DHT22;6281;49.038;8.372;2023-09-08T12:46:27;35.30;80.00
12434;DHT22;6281;49.038;8.372;2023-09-08T12:48:55;35.60;72.90
12434;DHT22;6281;49.038;8.372;2023-09-08T12:51:22;35.30;66.70
12434;DHT22;6281;49.038;8.372;2023-09-08T12:53:49;35.60;67.50
12434;DHT22;6281;49.038;8.372;2023-09-08T12:56:16;35.40;70.70
12434;DHT22;6281;49.038;8.372;2023-09-08T12:58:43;35.50;71.90
12434;DHT22;6281;49.038;8.372;2023-09-08T13:01:10;34.40;68.90
12434;DHT22;6281;49.038;8.372;2023-09-08T13:03:39;34.70;75.00
12434;DHT22;6281;49.038;8.372;2023-09-08T13:06:06;35.00;64.40
12434;DHT22;6281;49.038;8.372;2023-09-08T13:08:32;34.20;60.40
12434;DHT22;6281;49.038;8.372;2023-09-08T13:10:59;33.50;68.60
12434;DHT22;6281;49.038;8.372;2023-09-08T13:13:26;33.20;76.10
12434;DHT22;6281;49.038;8.372;2023-09-08T13:15:55;33.30;83.10
12434;DHT22;6281;49.038;8.372;2023-09-08T13:18:22;34.80;70.30
12434;DHT22;6281;49.038;8.372;2023-09-08T13:20:50;35.30;68.00
12434;DHT22;6281;49.038;8.372;2023-09-08T13:23:17;34.80;70.70
12434;DHT22;6281;49.038;8.372;2023-09-08T13:25:44;33.50;84.80
12434;DHT22;6281;49.038;8.372;2023-09-08T13:28:11;33.90;91.00
12434;DHT22;6281;49.038;8.372;2023-09-08T13:30:38;34.30;83.90
12434;DHT22;6281;49.038;8.372;2023-09-08T13:33:05;34.60;87.10
12434;DHT22;6281;49.038;8.372;2023-09-08T13:35:32;34.50;70.50
12434;DHT22;6281;49.038;8.372;2023-09-08T13:38:01;35.00;63.70
12434;DHT22;6281;49.038;8.372;2023-09-08T13:40:28;35.40;58.20
12434;DHT22;6281;49.038;8.372;2023-09-08T13:42:55;34.80;62.10
12434;DHT22;6281;49.038;8.372;2023-09-08T13:45:22;34.80;73.70
12434;DHT22;6281;49.038;8.372;2023-09-08T13:47:49;35.60;62.90
12434;DHT22;6281;49.038;8.372;2023-09-08T13:50:16;35.50;78.50
12434;DHT22;6281;49.038;8.372;2023-09-08T13:52:43;35.60;72.60
12434;DHT22;6281;49.038;8.372;2023-09-08T13:55:11;35.30;66.90
12434;DHT22;6281;49.038;8.372;2023-09-08T13:57:38;35.50;78.30
12434;DHT22;6281;49.038;8.372;2023-09-08T14:00:06;35.40;60.10
12434;DHT22;6281;49.038;8.372;2023-09-08T14:02:34;35.30;67.80
12434;DHT22;6281;49.038;8.372;2023-09-08T14:05:01;35.10;62.50
12434;DHT22;6281;49.038;8.372;2023-09-08T14:07:28;34.80;63.60
12434;DHT22;6281;49.038;8.372;2023-09-08T14:09:55;34.70;73.80
12434;DHT22;6281;49.038;8.372;2023-09-08T14:12:24;35.50;76.10
12434;DHT22;6281;49.038;8.372;2023-09-08T14:14:51;35.40;71.00
12434;DHT22;6281;49.038;8.372;2023-09-08T14:17:17;35.20;64.20
12434;DHT22;6281;49.038;8.372;2023-09-08T14:19:44;34.50;58.40
12434;DHT22;6281;49.038;8.372;2023-09-08T14:22:12;35.00;64.20
12434;DHT22;6281;49.038;8.372;2023-09-08T14:24:39;34.90;55.80
12434;DHT22;6281;49.038;8.372;2023-09-08T14:27:06;35.00;59.70
12434;DHT22;6281;49.038;8.372;2023-09-08T14:29:34;35.30;69.10
12434;DHT22;6281;49.038;8.372;2023-09-08T14:32:01;35.80;61.70
12434;DHT22;6281;49.038;8.372;2023-09-08T14:34:28;36.10;66.30
12434;DHT22;6281;49.038;8.372;2023-09-08T14:36:55;35.80;64.10
12434;DHT22;6281;49.038;8.372;2023-09-08T14:39:22;35.50;59.80
12434;DHT22;6281;49.038;8.372;2023-09-08T14:41:49;35.10;65.30
12434;DHT22;6281;49.038;8.372;2023-09-08T14:44:18;35.10;67.80
12434;DHT22;6281;49.038;8.372;2023-09-08T14:46:47;35.10;67.40
12434;DHT22;6281;49.038;8.372;2023-09-08T14:49:14;35.30;63.70
12434;DHT22;6281;49.038;8.372;2023-09-08T14:51:41;35.60;58.00
12434;DHT22;6281;49.038;8.372;2023-09-08T14:54:08;35.80;60.40
12434;DHT22;6281;49.038;8.372;2023-09-08T14:56:34;34.80;63.30
12434;DHT22;6281;49.038;8.372;2023-09-08T14:59:01;34.90;58.10
12434;DHT22;6281;49.038;8.372;2023-09-08T15:01:28;35.30;61.90
12434;DHT22;6281;49.038;8.372;2023-09-08T15:03:56;35.20;58.30
12434;DHT22;6281;49.038;8.372;2023-09-08T15:06:23;35.70;65.40
12434;DHT22;6281;49.038;8.372;2023-09-08T15:08:49;35.90;65.10
12434;DHT22;6281;49.038;8.372;2023-09-08T15:11:16;35.60;59.30
12434;DHT22;6281;49.038;8.372;2023-09-08T15:13:43;35.10;61.10
12434;DHT22;6281;49.038;8.372;2023-09-08T15:16:10;35.50;63.00
12434;DHT22;6281;49.038;8.372;2023-09-08T15:18:36;35.20;59.50
12434;DHT22;6281;49.038;8.372;2023-09-08T15:21:05;36.00;57.80
12434;DHT22;6281;49.038;8.372;2023-09-08T15:23:32;36.20;59.60
12434;DHT22;6281;49.038;8.372;2023-09-08T15:25:59;34.90;58.60
12434;DHT22;6281;49.038;8.372;2023-09-08T15:28:25;35.10;60.70
12434;DHT22;6281;49.038;8.372;2023-09-08T15:30:53;35.40;60.00
12434;DHT22;6281;49.038;8.372;2023-09-08T15:33:21;35.90;65.90
12434;DHT22;6281;49.038;8.372;2023-09-08T15:35:48;35.70;62.40
12434;DHT22;6281;49.038;8.372;2023-09-08T15:38:17;35.30;59.60
12434;DHT22;6281;49.038;8.372;2023-09-08T15:41:13;35.10;60.00
12434;DHT22;6281;49.038;8.372;2023-09-08T15:43:43;35.00;65.20
12434;DHT22;6281;49.038;8.372;2023-09-08T15:46:10;35.80;60.60
12434;DHT22;6281;49.038;8.372;2023-09-08T15:48:37;35.60;58.10
12434;DHT22;6281;49.038;8.372;2023-09-08T15:51:07;35.70;58.00
12434;DHT22;6281;49.038;8.372;2023-09-08T15:53:36;35.00;56.00
12434;DHT22;6281;49.038;8.372;2023-09-08T15:56:03;35.10;60.30